createdAt,value
2023-04-08T00:01:16.567Z,4.24
2023-04-08T00:03:22.844Z,4.15
2023-04-08T00:05:30.425Z,4.14
2023-04-08T00:07:37.411Z,4.13
2023-04-08T00:09:43.735Z,4.13
2023-04-08T00:11:51.259Z,4.11
2023-04-08T00:13:57.931Z,4.08
2023-04-08T00:16:04.707Z,4.03
2023-04-08T00:18:13.100Z,3.98
2023-04-08T00:20:22.530Z,3.89
2023-04-08T00:22:28.763Z,3.8
2023-04-08T00:24:35.580Z,3.69
2023-04-08T00:26:42.291Z,3.59
2023-04-08T00:28:49.444Z,3.43
2023-04-08T00:30:57.174Z,3.27
2023-04-08T00:33:03.780Z,3.15
2023-04-08T00:35:10.440Z,3.07
2023-04-08T00:37:17.104Z,2.99
2023-04-08T00:39:23.804Z,2.92
2023-04-08T00:41:30.692Z,2.78
2023-04-08T00:43:37.453Z,2.69
2023-04-08T00:45:43.793Z,2.56
2023-04-08T00:47:50.189Z,2.55
2023-04-08T00:49:56.668Z,2.58
2023-04-08T00:52:03.063Z,2.62
2023-04-08T00:54:09.614Z,2.66
2023-04-08T00:56:15.969Z,2.7
2023-04-08T00:58:22.465Z,2.73
2023-04-08T01:00:32.315Z,2.83
2023-04-08T01:02:39.726Z,2.79
2023-04-08T01:04:46.609Z,2.73
2023-04-08T01:06:53.083Z,2.85
2023-04-08T01:08:59.774Z,2.86
2023-04-08T01:11:06.751Z,2.72
2023-04-08T01:13:13.065Z,2.6
2023-04-08T01:15:19.587Z,2.5
2023-04-08T01:17:26.161Z,2.42
2023-04-08T01:19:32.923Z,2.29
2023-04-08T01:21:39.195Z,2.2
2023-04-08T01:23:46.686Z,2.09
2023-04-08T01:25:53.681Z,1.99
2023-04-08T01:28:00.732Z,1.86
2023-04-08T01:30:07.175Z,1.7
2023-04-08T01:32:13.343Z,1.62
2023-04-08T01:34:19.872Z,1.46
2023-04-08T01:36:26.322Z,1.29
2023-04-08T01:38:32.802Z,1.21
2023-04-08T01:40:40.235Z,1.12
2023-04-08T01:42:46.893Z,1.05
2023-04-08T01:44:53.572Z,0.94
2023-04-08T01:47:00.251Z,0.9
2023-04-08T01:49:07.078Z,0.84
2023-04-08T01:51:13.488Z,0.83
2023-04-08T01:53:20.071Z,0.74
2023-04-08T01:55:26.862Z,0.67
2023-04-08T01:57:33.570Z,0.58
2023-04-08T01:59:40.684Z,0.52
2023-04-08T02:01:47.153Z,0.48
2023-04-08T02:03:53.943Z,0.56
2023-04-08T02:06:01.729Z,0.52
2023-04-08T02:08:08.776Z,0.46
2023-04-08T02:10:15.022Z,0.41
2023-04-08T02:12:22.033Z,0.31
2023-04-08T02:14:28.776Z,0.23
2023-04-08T02:16:35.508Z,0.14
2023-04-08T02:18:42.743Z,0.11
2023-04-08T02:20:49.378Z,0.14
2023-04-08T02:22:57.134Z,0.13
2023-04-08T02:25:03.641Z,0.13
2023-04-08T02:27:09.961Z,0.13
2023-04-08T02:29:16.953Z,0.04
2023-04-08T02:31:24.104Z,-0.08
2023-04-08T02:33:30.798Z,-0.17
2023-04-08T02:35:37.621Z,-0.23
2023-04-08T02:37:44.471Z,-0.31
2023-04-08T02:39:51.316Z,-0.39
2023-04-08T02:41:57.803Z,-0.44
2023-04-08T02:44:03.916Z,-0.44
2023-04-08T02:46:11.467Z,-0.44
2023-04-08T02:48:18.777Z,-0.42
2023-04-08T02:50:25.601Z,-0.46
2023-04-08T02:52:32.693Z,-0.49
2023-04-08T02:54:39.707Z,-0.52
2023-04-08T02:56:47.183Z,-0.57
2023-04-08T02:58:53.976Z,-0.67
2023-04-08T03:01:00.436Z,-0.63
2023-04-08T03:03:07.969Z,-0.58
2023-04-08T03:05:15.768Z,-0.59
2023-04-08T03:07:22.395Z,-0.59
2023-04-08T03:09:29.161Z,-0.62
2023-04-08T03:11:36.219Z,-0.71
2023-04-08T03:13:42.878Z,-0.76
2023-04-08T03:15:50.008Z,-0.77
2023-04-08T03:17:57.233Z,-0.79
2023-04-08T03:20:04.153Z,-0.82
2023-04-08T03:22:11.893Z,-0.83
2023-04-08T03:24:18.702Z,-0.86
2023-04-08T03:26:25.365Z,-0.94
2023-04-08T03:28:32.285Z,-0.98
2023-04-08T03:30:39.181Z,-1.03
2023-04-08T03:32:46.239Z,-1.12
2023-04-08T03:34:52.648Z,-1.14
2023-04-08T03:36:58.873Z,-1.14
2023-04-08T03:39:06.123Z,-1.15
2023-04-08T03:41:12.713Z,-1.14
2023-04-08T03:43:19.501Z,-1.05
2023-04-08T03:45:26.111Z,-0.97
2023-04-08T03:47:32.998Z,-0.93
2023-04-08T03:49:40.273Z,-0.96
2023-04-08T03:51:47.333Z,-0.95
2023-04-08T03:53:53.835Z,-0.94
2023-04-08T03:56:01.224Z,-0.86
2023-04-08T03:58:10.746Z,-0.8
2023-04-08T04:00:17.617Z,-0.78
2023-04-08T04:02:24.402Z,-0.8
2023-04-08T04:04:32.557Z,-0.85
2023-04-08T04:06:39.510Z,-0.9
2023-04-08T04:08:46.736Z,-0.93
2023-04-08T04:10:54.335Z,-0.99
2023-04-08T04:13:01.323Z,-1.03
2023-04-08T04:15:07.854Z,-1.06
2023-04-08T04:17:14.601Z,-1.08
2023-04-08T04:19:21.276Z,-1.03
2023-04-08T04:21:28.379Z,-1.04
2023-04-08T04:23:35.059Z,-1.03
2023-04-08T04:25:42.327Z,-1.02
2023-04-08T04:27:48.997Z,-1.01
2023-04-08T04:29:55.188Z,-0.99
2023-04-08T04:32:01.493Z,-0.98
2023-04-08T04:34:07.751Z,-0.93
2023-04-08T04:36:14.365Z,-0.91
2023-04-08T04:38:22.638Z,-0.87
2023-04-08T04:40:29.263Z,-0.85
2023-04-08T04:42:36.087Z,-0.79
2023-04-08T04:44:43.362Z,-0.77
2023-04-08T04:46:50.059Z,-0.72
2023-04-08T04:48:58.230Z,-0.62
2023-04-08T04:51:04.578Z,-0.57
2023-04-08T04:53:11.886Z,-0.54
2023-04-08T04:55:19.190Z,-0.49
2023-04-08T04:57:25.734Z,-0.43
2023-04-08T04:59:32.854Z,-0.36
2023-04-08T05:01:40.129Z,-0.24
2023-04-08T05:03:47.282Z,-0.16
2023-04-08T05:05:54.370Z,-0.09
2023-04-08T05:08:00.828Z,-0.01
2023-04-08T05:10:07.272Z,0.04
2023-04-08T05:12:17.335Z,0.16
2023-04-08T05:14:23.613Z,0.31
2023-04-08T05:16:31.010Z,0.54
2023-04-08T05:18:38.529Z,0.84
2023-04-08T05:20:45.473Z,1.17
2023-04-08T05:22:51.958Z,1.43
2023-04-08T05:24:58.712Z,1.54
2023-04-08T05:27:05.287Z,2.02
2023-04-08T05:29:12.049Z,2.25
2023-04-08T05:31:18.914Z,2.3
2023-04-08T05:33:25.983Z,2.4
2023-04-08T05:35:33.324Z,2.65
2023-04-08T05:37:40.252Z,2.68
2023-04-08T05:39:47.300Z,2.49
2023-04-08T05:41:53.618Z,2.78
2023-04-08T05:43:59.796Z,3.06
2023-04-08T05:46:06.945Z,3.19
2023-04-08T05:48:14.009Z,3.4
2023-04-08T05:50:20.190Z,3.7
2023-04-08T05:52:26.442Z,3.77
2023-04-08T05:54:32.864Z,3.99
2023-04-08T05:56:39.215Z,4.04
2023-04-08T05:58:46.566Z,4.13
2023-04-08T06:00:53.980Z,4.12
2023-04-08T06:03:01.026Z,4.1
2023-04-08T06:05:09.595Z,4.17
2023-04-08T06:07:16.848Z,4.23
2023-04-08T06:09:24.219Z,4.29
2023-04-08T06:11:31.053Z,4.3
2023-04-08T06:13:37.788Z,4.38
2023-04-08T06:15:44.909Z,4.56
2023-04-08T06:17:54.811Z,4.79
2023-04-08T06:20:01.350Z,5.09
2023-04-08T06:22:07.962Z,5.04
2023-04-08T06:24:14.320Z,5.26
2023-04-08T06:26:20.840Z,5.49
2023-04-08T06:28:27.213Z,5.45
2023-04-08T06:30:33.315Z,5.58
2023-04-08T06:32:40.310Z,6.06
2023-04-08T06:34:47.511Z,6.02
2023-04-08T06:36:54.643Z,6.23
2023-04-08T06:39:01.421Z,6.25
2023-04-08T06:41:07.694Z,6.27
2023-04-08T06:43:14.660Z,6.34
2023-04-08T06:45:21.755Z,6.44
2023-04-08T06:47:28.507Z,6.6
2023-04-08T06:49:35.789Z,7.48
2023-04-08T06:51:42.719Z,7.94
2023-04-08T06:53:49.407Z,8.01
2023-04-08T06:55:56.142Z,8.21
2023-04-08T06:58:03.890Z,8.41
2023-04-08T07:00:10.041Z,7.95
2023-04-08T07:02:16.619Z,8.04
2023-04-08T07:04:24.028Z,8.52
2023-04-08T07:06:32.567Z,8.58
2023-04-08T07:08:41.261Z,8.51
2023-04-08T07:10:48.035Z,8.78
2023-04-08T07:12:55.169Z,8.66
2023-04-08T07:15:02.234Z,8.7
2023-04-08T07:17:08.599Z,8.75
2023-04-08T07:19:16.233Z,8.98
2023-04-08T07:21:22.887Z,8.96
2023-04-08T07:23:30.601Z,8.97
2023-04-08T07:25:37.803Z,8.97
2023-04-08T07:27:44.375Z,9.34
2023-04-08T07:29:51.284Z,9.47
2023-04-08T07:31:57.754Z,9.6
2023-04-08T07:34:04.411Z,9.66
2023-04-08T07:36:12.050Z,9.65
2023-04-08T07:38:19.004Z,9.12
2023-04-08T07:40:25.276Z,9.15
2023-04-08T07:42:31.465Z,9.36
2023-04-08T07:44:38.234Z,10.06
2023-04-08T07:46:44.652Z,10.18
2023-04-08T07:48:51.473Z,10.51
2023-04-08T07:51:09.545Z,11.67
2023-04-08T07:53:17.587Z,11.22
2023-04-08T07:55:29.862Z,10.72
2023-04-08T07:57:36.385Z,11.34
2023-04-08T07:59:43.431Z,11.21
2023-04-08T08:01:50.082Z,12.1
2023-04-08T08:03:56.805Z,10.87
2023-04-08T08:06:06.907Z,11.48
2023-04-08T08:08:14.001Z,11.46
2023-04-08T08:10:20.352Z,11.89
2023-04-08T08:12:26.832Z,11.68
2023-04-08T08:14:33.403Z,11.12
2023-04-08T08:16:43.570Z,10.65
2023-04-08T08:18:52.193Z,10.59
2023-04-08T08:20:59.431Z,10.27
2023-04-08T08:23:06.582Z,10.91
2023-04-08T08:25:12.831Z,11.46
2023-04-08T08:27:19.428Z,12.26
2023-04-08T08:29:26.286Z,12.32
2023-04-08T08:31:33.252Z,12.61
2023-04-08T08:33:40.969Z,11.78
2023-04-08T08:35:47.744Z,11.5
2023-04-08T08:37:55.481Z,11.84
2023-04-08T08:40:02.295Z,11.75
2023-04-08T08:42:08.446Z,11.36
2023-04-08T08:44:15.158Z,12.03
2023-04-08T08:46:23.188Z,12.13
2023-04-08T08:48:30.249Z,10.12
2023-04-08T08:50:36.639Z,10.42
2023-04-08T08:52:44.180Z,11.87
2023-04-08T08:54:51.248Z,11.8
2023-04-08T08:56:59.197Z,12.44
2023-04-08T08:59:06.628Z,11.74
2023-04-08T09:01:12.876Z,13.2
2023-04-08T09:03:20.110Z,12.32
2023-04-08T09:05:29.713Z,12.76
2023-04-08T09:07:36.791Z,13.43
2023-04-08T09:09:43.075Z,12.55
2023-04-08T09:11:49.466Z,13.1
2023-04-08T09:13:56.034Z,11.9
2023-04-08T09:16:02.770Z,12.25
2023-04-08T09:18:10.625Z,13.64
2023-04-08T09:20:20.120Z,13.2
2023-04-08T09:22:28.391Z,13.58
2023-04-08T09:24:34.771Z,12.8
2023-04-08T09:26:41.216Z,13.45
2023-04-08T09:28:47.978Z,14.67
2023-04-08T09:30:55.188Z,15.11
2023-04-08T09:33:02.482Z,14.57
2023-04-08T09:35:10.083Z,13.28
2023-04-08T09:37:16.804Z,13.02
2023-04-08T09:39:23.076Z,13.03
2023-04-08T09:41:29.593Z,12.46
2023-04-08T09:43:35.863Z,14.18
2023-04-08T09:45:43.963Z,14.16
2023-04-08T09:47:51.653Z,15.5
2023-04-08T09:49:59.197Z,15.11
2023-04-08T09:52:07.539Z,14.83
2023-04-08T09:54:15.562Z,13.81
2023-04-08T09:56:22.929Z,14.65
2023-04-08T09:58:30.149Z,13.23
2023-04-08T10:00:37.674Z,13.63
2023-04-08T10:02:45.395Z,14.12
2023-04-08T10:04:53.385Z,13.68
2023-04-08T10:07:01.147Z,14.49
2023-04-08T10:09:08.183Z,14.01
2023-04-08T10:11:14.415Z,15.16
2023-04-08T10:13:21.738Z,15.35
2023-04-08T10:15:29.715Z,14.4
2023-04-08T10:17:37.161Z,15.24
2023-04-08T10:19:43.621Z,16.8
2023-04-08T10:21:50.117Z,16.7
2023-04-08T10:23:57.211Z,15.98
2023-04-08T10:26:06.411Z,16.11
2023-04-08T10:28:12.987Z,15.77
2023-04-08T10:30:19.848Z,16.64
2023-04-08T10:32:26.318Z,16.23
2023-04-08T10:34:32.775Z,15.71
2023-04-08T10:36:39.322Z,15.3
2023-04-08T10:38:50.679Z,14.71
2023-04-08T10:40:58.688Z,14.82
2023-04-08T10:43:05.423Z,14.79
2023-04-08T10:45:11.807Z,14.21
2023-04-08T10:47:18.904Z,15.84
2023-04-08T10:49:25.717Z,16.11
2023-04-08T10:51:34.036Z,16.41
2023-04-08T10:53:41.574Z,15.72
2023-04-08T10:55:48.092Z,15.73
2023-04-08T10:57:56.414Z,15.39
2023-04-08T11:00:04.675Z,15.69
2023-04-08T11:02:12.049Z,15.01
2023-04-08T11:04:19.769Z,15.67
2023-04-08T11:06:27.019Z,15.39
2023-04-08T11:08:34.271Z,16.62
2023-04-08T11:10:42.551Z,16.71
2023-04-08T11:12:49.078Z,16.99
2023-04-08T11:14:58.688Z,15.15
2023-04-08T11:17:05.330Z,14.46
2023-04-08T11:19:13.015Z,14.68
2023-04-08T11:21:19.449Z,14.74
2023-04-08T11:23:26.054Z,13.56
2023-04-08T11:25:32.574Z,14.09
2023-04-08T11:27:39.541Z,15.31
2023-04-08T11:29:46.208Z,15.97
2023-04-08T11:31:52.819Z,14.47
2023-04-08T11:34:00.045Z,15.1
2023-04-08T11:36:06.608Z,15.62
2023-04-08T11:38:13.901Z,15.19
2023-04-08T11:40:21.341Z,13.76
2023-04-08T11:42:28.974Z,13.6
2023-04-08T11:44:36.844Z,13.8
2023-04-08T11:46:43.486Z,14.42
2023-04-08T11:48:51.407Z,14.3
2023-04-08T11:50:57.890Z,13.75
2023-04-08T11:53:04.655Z,13.5
2023-04-08T11:55:11.896Z,13.78
2023-04-08T11:57:18.569Z,14.4
2023-04-08T11:59:27.349Z,14.89
2023-04-08T12:01:35.228Z,14.57
2023-04-08T12:03:41.989Z,15.44
2023-04-08T12:05:49.169Z,15.81
2023-04-08T12:07:56.285Z,15.26
2023-04-08T12:10:03.718Z,15.29
2023-04-08T12:12:10.471Z,15.02
2023-04-08T12:14:17.953Z,16.08
2023-04-08T12:16:25.132Z,16.69
2023-04-08T12:18:33.664Z,16.52
2023-04-08T12:20:41.808Z,16.19
2023-04-08T12:22:49.216Z,15.73
2023-04-08T12:24:57.135Z,17.26
2023-04-08T12:27:04.948Z,17.88
2023-04-08T12:29:11.737Z,15.86
2023-04-08T12:31:18.682Z,16.65
2023-04-08T12:33:25.769Z,16.68
2023-04-08T12:35:33.225Z,17.66
2023-04-08T12:37:40.314Z,15.88
2023-04-08T12:39:47.910Z,16.41
2023-04-08T12:41:55.043Z,15.84
2023-04-08T12:44:02.407Z,17.12
2023-04-08T12:46:09.313Z,17.37
2023-04-08T12:48:16.032Z,17.64
2023-04-08T12:50:23.880Z,16.83
2023-04-08T12:52:31.593Z,15.74
2023-04-08T12:54:38.926Z,15.7
2023-04-08T12:56:46.312Z,15.33
2023-04-08T12:58:52.855Z,14.85
2023-04-08T13:00:59.587Z,14.7
2023-04-08T13:03:07.281Z,13.96
2023-04-08T13:05:14.831Z,14.3
2023-04-08T13:07:45.729Z,14.23
2023-04-08T13:09:55.660Z,14.34
2023-04-08T13:12:02.693Z,14.06
2023-04-08T13:14:09.769Z,14.45
2023-04-08T13:16:17.072Z,13.98
2023-04-08T13:18:23.738Z,14.19
2023-04-08T13:20:30.487Z,14.2
2023-04-08T13:22:37.672Z,14.56
2023-04-08T13:24:44.079Z,14.43
2023-04-08T13:26:50.545Z,14.29
2023-04-08T13:28:58.201Z,14.38
2023-04-08T13:31:06.752Z,14.4
2023-04-08T13:33:13.996Z,14.55
2023-04-08T13:35:23.099Z,14.54
2023-04-08T13:37:30.004Z,14.95
2023-04-08T13:39:37.785Z,14.61
2023-04-08T13:41:45.707Z,14.52
2023-04-08T13:43:52.912Z,14.44
2023-04-08T13:45:59.411Z,14.76
2023-04-08T13:48:06.127Z,14.83
2023-04-08T13:50:12.734Z,14.47
2023-04-08T13:52:19.378Z,14.25
2023-04-08T13:54:26.980Z,14.47
2023-04-08T13:56:33.501Z,14.8
2023-04-08T13:58:40.268Z,15.03
2023-04-08T14:00:59.723Z,15.05
2023-04-08T14:03:07.614Z,14.59
2023-04-08T14:05:16.204Z,14.27
2023-04-08T14:07:23.786Z,14.2
2023-04-08T14:09:31.994Z,14.28
2023-04-08T14:11:40.160Z,14.08
2023-04-08T14:13:47.313Z,14.07
2023-04-08T14:15:54.415Z,14.22
2023-04-08T14:18:03.261Z,14.57
2023-04-08T14:20:13.438Z,14.35
2023-04-08T14:22:26.727Z,14.03
2023-04-08T14:24:35.670Z,13.99
2023-04-08T14:26:44.082Z,14.13
2023-04-08T14:28:52.116Z,14.27
2023-04-08T14:30:59.874Z,14.27
2023-04-08T14:33:07.130Z,14.25
2023-04-08T14:35:14.652Z,14.34
2023-04-08T14:37:21.282Z,14.54
2023-04-08T14:39:28.931Z,14.67
2023-04-08T14:41:36.883Z,14.48
2023-04-08T14:43:44.166Z,14.05
2023-04-08T14:45:52.617Z,13.72
2023-04-08T14:48:00.536Z,13.64
2023-04-08T14:50:09.056Z,13.72
2023-04-08T14:52:17.480Z,13.9
2023-04-08T14:54:27.018Z,13.8
2023-04-08T14:56:34.987Z,13.79
2023-04-08T14:58:42.633Z,13.7
2023-04-08T15:00:49.483Z,13.57
2023-04-08T15:02:56.502Z,13.49
2023-04-08T15:05:04.319Z,13.37
2023-04-08T15:07:10.923Z,13.4
2023-04-08T15:09:18.257Z,13.4
2023-04-08T15:11:26.252Z,13.28
2023-04-08T15:13:34.783Z,13.27
2023-04-08T15:15:43.206Z,13.3
2023-04-08T15:17:52.163Z,13.2
2023-04-08T15:19:59.822Z,13.16
2023-04-08T15:22:07.424Z,13.22
2023-04-08T15:24:14.722Z,13.23
2023-04-08T15:26:22.143Z,13.23
2023-04-08T15:28:29.304Z,13.14
2023-04-08T15:30:35.813Z,13.05
2023-04-08T15:32:43.679Z,12.87
2023-04-08T15:34:51.097Z,12.79
2023-04-08T15:36:58.781Z,12.82
2023-04-08T15:39:05.850Z,12.78
2023-04-08T15:41:12.562Z,12.67
2023-04-08T15:43:19.113Z,12.67
2023-04-08T15:45:25.428Z,12.62
2023-04-08T15:47:32.662Z,12.53
2023-04-08T15:49:40.444Z,12.45
2023-04-08T15:51:47.175Z,12.4
2023-04-08T15:53:54.234Z,12.38
2023-04-08T15:56:01.531Z,12.35
2023-04-08T15:58:08.489Z,12.26
2023-04-08T16:00:16.617Z,12.25
2023-04-08T16:02:23.835Z,12.26
2023-04-08T16:04:31.791Z,12.25
2023-04-08T16:06:39.105Z,12.19
2023-04-08T16:08:48.257Z,12.14
2023-04-08T16:10:56.744Z,12.03
2023-04-08T16:13:04.063Z,12
2023-04-08T16:15:10.822Z,12.01
2023-04-08T16:17:18.337Z,11.94
2023-04-08T16:19:24.956Z,11.91
2023-04-08T16:21:31.339Z,11.89
2023-04-08T16:23:38.154Z,11.86
2023-04-08T16:25:45.159Z,11.85
2023-04-08T16:27:52.119Z,11.82
2023-04-08T16:29:58.768Z,11.78
2023-04-08T16:32:05.961Z,11.74
2023-04-08T16:34:12.742Z,11.67
2023-04-08T16:36:19.492Z,11.59
2023-04-08T16:38:26.083Z,11.53
2023-04-08T16:40:33.260Z,11.45
2023-04-08T16:42:39.839Z,11.34
2023-04-08T16:44:47.689Z,11.28
2023-04-08T16:46:54.243Z,11.21
2023-04-08T16:49:00.863Z,11.15
2023-04-08T16:51:07.643Z,11.08
2023-04-08T16:53:14.605Z,11.02
2023-04-08T16:55:21.280Z,10.94
2023-04-08T16:57:27.996Z,10.88
2023-04-08T16:59:34.498Z,10.85
2023-04-08T17:01:40.643Z,10.78
2023-04-08T17:03:47.419Z,10.73
2023-04-08T17:05:55.564Z,10.68
2023-04-08T17:08:02.750Z,10.64
2023-04-08T17:10:09.597Z,10.61
2023-04-08T17:12:17.835Z,10.56
2023-04-08T17:14:25.378Z,10.58
2023-04-08T17:16:32.451Z,10.71
2023-04-08T17:18:39.602Z,10.75
2023-04-08T17:20:46.185Z,10.77
2023-04-08T17:22:52.708Z,10.72
2023-04-08T17:24:59.299Z,10.68
2023-04-08T17:27:06.099Z,10.61
2023-04-08T17:29:12.833Z,10.55
2023-04-08T17:31:19.908Z,10.44
2023-04-08T17:33:26.541Z,10.34
2023-04-08T17:35:33.056Z,10.27
2023-04-08T17:37:39.475Z,10.15
2023-04-08T17:39:46.014Z,10.04
2023-04-08T17:41:53.109Z,9.98
2023-04-08T17:44:00.120Z,9.82
2023-04-08T17:46:07.643Z,9.77
2023-04-08T17:48:14.156Z,9.68
2023-04-08T17:50:21.239Z,9.62
2023-04-08T17:52:27.750Z,9.56
2023-04-08T17:54:33.870Z,9.46
2023-04-08T17:56:42.230Z,9.43
2023-04-08T17:58:53.268Z,9.38
2023-04-08T18:00:59.966Z,9.3
2023-04-08T18:03:06.596Z,9.24
2023-04-08T18:05:13.847Z,9.21
2023-04-08T18:07:20.419Z,9.15
2023-04-08T18:09:27.335Z,9.1
2023-04-08T18:11:34.372Z,9.07
2023-04-08T18:13:41.128Z,8.97
2023-04-08T18:15:48.417Z,8.87
2023-04-08T18:17:55.033Z,8.85
2023-04-08T18:20:02.173Z,8.94
2023-04-08T18:22:08.554Z,8.98
2023-04-08T18:24:15.434Z,9.03
2023-04-08T18:26:22.011Z,9.27
2023-04-08T18:28:28.832Z,9.43
2023-04-08T18:30:35.800Z,9.61
2023-04-08T18:32:43.193Z,9.53
2023-04-08T18:34:51.413Z,9.75
2023-04-08T18:36:58.181Z,9.92
2023-04-08T18:39:05.458Z,9.91
2023-04-08T18:41:12.163Z,9.97
2023-04-08T18:43:19.020Z,10.17
2023-04-08T18:45:25.691Z,10.13
2023-04-08T18:47:32.938Z,10.06
2023-04-08T18:49:41.619Z,10
2023-04-08T18:51:59.322Z,9.95
2023-04-08T18:54:09.948Z,9.88
2023-04-08T18:56:17.542Z,9.81
2023-04-08T18:58:24.534Z,9.78
2023-04-08T19:00:32.665Z,9.81
2023-04-08T19:02:40.077Z,9.76
2023-04-08T19:04:48.100Z,9.73
2023-04-08T19:06:55.704Z,9.7
2023-04-08T19:09:04.377Z,9.69
2023-04-08T19:11:12.223Z,9.67
2023-04-08T19:13:18.900Z,9.63
2023-04-08T19:15:27.398Z,9.63
2023-04-08T19:17:35.777Z,9.61
2023-04-08T19:19:44.252Z,9.6
2023-04-08T19:21:51.946Z,9.52
2023-04-08T19:23:59.367Z,9.45
2023-04-08T19:26:07.579Z,9.43
2023-04-08T19:28:15.153Z,9.38
2023-04-08T19:30:22.062Z,9.34
2023-04-08T19:32:30.371Z,9.3
2023-04-08T19:34:38.436Z,9.27
2023-04-08T19:36:45.949Z,9.22
2023-04-08T19:38:54.014Z,9.21
2023-04-08T19:41:01.831Z,9.18
2023-04-08T19:43:09.658Z,9.11
2023-04-08T19:45:17.514Z,9.05
2023-04-08T19:47:25.009Z,8.97
2023-04-08T19:49:33.536Z,8.88
2023-04-08T19:51:41.466Z,8.83
2023-04-08T19:53:48.877Z,8.77
2023-04-08T19:55:56.744Z,8.74
2023-04-08T19:58:05.295Z,8.72
2023-04-08T20:00:14.077Z,8.7
2023-04-08T20:02:22.329Z,8.67
2023-04-08T20:04:30.710Z,8.62
2023-04-08T20:06:38.916Z,8.57
2023-04-08T20:08:46.095Z,8.5
2023-04-08T20:10:54.534Z,8.44
2023-04-08T20:13:01.931Z,8.41
2023-04-08T20:15:19.510Z,8.38
2023-04-08T20:17:31.107Z,8.36
2023-04-08T20:19:39.494Z,8.32
2023-04-08T20:21:47.313Z,8.28
2023-04-08T20:26:17.162Z,8.23
2023-04-08T20:28:23.804Z,8.21
2023-04-08T20:30:30.957Z,8.19
2023-04-08T20:32:38.697Z,8.18
2023-04-08T20:34:45.403Z,8.17
2023-04-08T20:36:52.415Z,8.16
2023-04-08T20:39:00.176Z,8.15
2023-04-08T20:41:07.729Z,8.13
2023-04-08T20:43:14.853Z,8.1
2023-04-08T20:45:21.409Z,8.08
2023-04-08T20:47:28.783Z,8.07
2023-04-08T20:49:36.297Z,8.06
2023-04-08T20:51:44.262Z,8.06
2023-04-08T20:53:54.320Z,8.06
2023-04-08T20:56:01.439Z,8.07
2023-04-08T20:58:08.331Z,8.05
2023-04-08T21:00:15.884Z,8.04
2023-04-08T21:04:47.145Z,8.02
2023-04-08T21:06:54.523Z,8.02
2023-04-08T21:09:01.751Z,8.01
2023-04-08T21:11:08.898Z,8
2023-04-08T21:13:15.880Z,7.99
2023-04-08T21:15:23.322Z,7.99
2023-04-08T21:17:29.759Z,7.99
2023-04-08T21:19:38.770Z,7.98
2023-04-08T21:21:45.728Z,7.96
2023-04-08T21:23:52.756Z,7.96
2023-04-08T21:26:00.397Z,7.96
2023-04-08T21:28:11.348Z,7.95
2023-04-08T21:30:18.391Z,7.95
2023-04-08T21:32:25.127Z,7.93
2023-04-08T21:34:35.578Z,7.93
2023-04-08T21:36:42.315Z,7.91
2023-04-08T21:38:49.140Z,7.86
2023-04-08T21:40:57.333Z,7.84
2023-04-08T21:43:03.896Z,7.81
2023-04-08T21:45:10.934Z,7.8
2023-04-08T21:47:18.146Z,7.79
2023-04-08T21:49:26.340Z,7.79
2023-04-08T21:51:33.122Z,7.79
2023-04-08T21:53:40.176Z,7.76
2023-04-08T21:55:46.734Z,7.74
2023-04-08T21:57:53.569Z,7.72
2023-04-08T22:00:00.514Z,7.69
2023-04-08T22:02:07.803Z,7.66
2023-04-08T22:04:17.572Z,7.66
2023-04-08T22:06:31.914Z,7.63
2023-04-08T22:08:39.156Z,7.6
2023-04-08T22:10:46.452Z,7.59
2023-04-08T22:12:53.156Z,7.58
2023-04-08T22:14:59.817Z,7.57
2023-04-08T22:17:06.869Z,7.59
2023-04-08T22:19:13.615Z,7.6
2023-04-08T22:21:20.468Z,7.6
2023-04-08T22:23:27.299Z,7.6
2023-04-08T22:25:33.803Z,7.62
2023-04-08T22:27:40.421Z,7.61
2023-04-08T22:29:46.951Z,7.63
2023-04-08T22:31:53.438Z,7.62
2023-04-08T22:34:00.497Z,7.62
2023-04-08T22:36:06.641Z,7.62
2023-04-08T22:38:13.401Z,7.61
2023-04-08T22:40:20.069Z,7.6
2023-04-08T22:42:26.584Z,7.57
2023-04-08T22:44:32.829Z,7.54
2023-04-08T22:46:39.598Z,7.52
2023-04-08T22:48:46.203Z,7.51
2023-04-08T22:50:53.931Z,7.49
2023-04-08T22:53:00.571Z,7.46
2023-04-08T22:55:07.119Z,7.42
2023-04-08T22:57:13.546Z,7.41
2023-04-08T22:59:20.128Z,7.41
2023-04-08T23:01:27.046Z,7.4
2023-04-08T23:03:33.750Z,7.38
2023-04-08T23:05:40.385Z,7.35
2023-04-08T23:07:46.962Z,7.33
2023-04-08T23:09:53.726Z,7.31
2023-04-08T23:12:00.175Z,7.3
2023-04-08T23:14:07.132Z,7.26
2023-04-08T23:16:13.935Z,7.26
2023-04-08T23:18:20.558Z,7.25
2023-04-08T23:20:27.227Z,7.23
2023-04-08T23:22:33.782Z,7.22
2023-04-08T23:24:40.340Z,7.22
2023-04-08T23:26:46.554Z,7.25
2023-04-08T23:28:53.545Z,7.24
2023-04-08T23:31:01.422Z,7.23
2023-04-08T23:33:08.272Z,7.2
2023-04-08T23:35:14.772Z,7.21
2023-04-08T23:37:21.713Z,7.21
2023-04-08T23:39:28.138Z,7.22
2023-04-08T23:41:34.505Z,7.23
2023-04-08T23:46:01.415Z,7.26
2023-04-08T23:48:10.216Z,7.28
2023-04-08T23:50:16.849Z,7.29
2023-04-08T23:52:23.554Z,7.31
2023-04-08T23:54:33.396Z,7.33
2023-04-08T23:56:40.126Z,7.35
2023-04-08T23:58:46.708Z,7.38
